createdAt,value
2018-07-12T00:00:18.108Z,19.65
2018-07-12T00:02:44.820Z,23.50
2018-07-12T00:05:11.521Z,18.95
2018-07-12T00:07:38.351Z,24.55
2018-07-12T00:10:05.105Z,23.40
2018-07-12T00:12:31.811Z,19.52
2018-07-12T00:14:58.593Z,19.42
2018-07-12T00:17:25.313Z,18.87
2018-07-12T00:19:52.060Z,16.73
2018-07-12T00:22:18.794Z,18.48
2018-07-12T00:24:45.672Z,20.32
2018-07-12T00:27:12.409Z,19.80
2018-07-12T00:29:39.692Z,16.60
2018-07-12T00:32:07.462Z,22.50
2018-07-12T00:34:34.134Z,20.57
2018-07-12T00:37:02.031Z,20.08
2018-07-12T00:39:28.846Z,15.35
2018-07-12T00:41:55.810Z,17.17
2018-07-12T00:44:22.653Z,19.77
2018-07-12T00:46:50.321Z,19.90
2018-07-12T00:49:17.010Z,18.23
2018-07-12T00:51:43.699Z,18.30
2018-07-12T00:56:57.603Z,20.00
2018-07-12T00:59:31.894Z,21.68
2018-07-12T01:01:58.694Z,19.20
2018-07-12T01:04:25.400Z,18.32
2018-07-12T01:06:52.165Z,18.27
2018-07-12T01:09:18.996Z,19.32
2018-07-12T01:11:45.692Z,29.02
2018-07-12T01:14:12.436Z,22.00
2018-07-12T01:16:39.398Z,21.77
2018-07-12T01:19:06.135Z,19.60
2018-07-12T01:21:32.832Z,23.35
2018-07-12T01:23:59.624Z,24.70
2018-07-12T01:26:26.338Z,22.98
2018-07-12T01:28:53.057Z,22.47
2018-07-12T01:31:20.271Z,24.43
2018-07-12T01:33:48.107Z,26.87
2018-07-12T01:36:14.924Z,25.90
2018-07-12T01:38:41.684Z,27.67
2018-07-12T01:41:08.363Z,28.80
2018-07-12T01:43:35.739Z,24.73
2018-07-12T01:46:02.522Z,25.73
2018-07-12T01:48:29.289Z,27.87
2018-07-12T01:50:56.027Z,28.83
2018-07-12T01:53:22.892Z,29.33
2018-07-12T01:55:50.661Z,34.25
2018-07-12T01:58:17.397Z,29.57
2018-07-12T02:00:45.105Z,32.43
2018-07-12T02:03:11.829Z,31.50
2018-07-12T02:05:38.574Z,24.93
2018-07-12T02:08:05.312Z,29.77
2018-07-12T02:10:31.985Z,27.47
2018-07-12T02:12:58.908Z,24.15
2018-07-12T02:20:25.359Z,21.20
2018-07-12T02:22:52.439Z,20.83
2018-07-12T02:25:19.205Z,23.95
2018-07-12T02:27:45.919Z,18.92
2018-07-12T02:30:12.645Z,21.67
2018-07-12T02:32:39.401Z,16.00
2018-07-12T02:35:06.093Z,18.82
2018-07-12T02:37:32.864Z,25.40
2018-07-12T02:39:59.699Z,21.63
2018-07-12T02:42:26.411Z,18.35
2018-07-12T02:44:53.135Z,21.77
2018-07-12T02:47:20.128Z,15.88
2018-07-12T02:49:47.287Z,23.27
2018-07-12T02:52:14.565Z,23.75
2018-07-12T02:54:42.141Z,21.97
2018-07-12T02:57:08.894Z,20.77
2018-07-12T02:59:35.633Z,18.05
2018-07-12T03:02:02.649Z,21.20
2018-07-12T03:04:29.516Z,14.83
2018-07-12T03:06:56.236Z,31.37
2018-07-12T03:09:22.996Z,24.13
2018-07-12T03:11:49.684Z,20.20
2018-07-12T03:14:16.431Z,24.43
2018-07-12T03:16:43.197Z,24.23
2018-07-12T03:19:09.920Z,25.80
2018-07-12T03:21:36.652Z,18.33
2018-07-12T03:24:04.244Z,23.45
2018-07-12T03:26:31.014Z,25.47
2018-07-12T03:29:04.215Z,27.03
2018-07-12T03:31:41.480Z,25.60
2018-07-12T03:34:24.078Z,23.70
2018-07-12T03:36:50.847Z,25.07
2018-07-12T03:39:18.597Z,28.77
2018-07-12T03:41:45.325Z,29.60
2018-07-12T03:44:12.066Z,29.07
2018-07-12T03:46:38.788Z,30.97
2018-07-12T03:49:05.511Z,31.23
2018-07-12T03:51:32.299Z,34.57
2018-07-12T03:53:59.109Z,36.40
2018-07-12T03:56:25.821Z,46.00
2018-07-12T03:58:52.594Z,36.10
2018-07-12T04:01:19.270Z,40.80
2018-07-12T04:03:45.997Z,41.33
2018-07-12T04:06:12.839Z,45.90
2018-07-12T04:08:39.637Z,45.67
2018-07-12T04:11:06.300Z,45.20
2018-07-12T04:13:33.658Z,54.20
2018-07-12T04:16:00.371Z,41.83
2018-07-12T04:18:27.073Z,41.73
2018-07-12T04:20:53.750Z,43.50
2018-07-12T04:23:20.507Z,38.80
2018-07-12T04:25:47.297Z,30.90
2018-07-12T04:28:13.994Z,37.53
2018-07-12T04:30:40.745Z,31.33
2018-07-12T04:33:07.502Z,34.23
2018-07-12T04:35:34.209Z,33.63
2018-07-12T04:38:00.934Z,28.13
2018-07-12T04:40:27.661Z,36.80
2018-07-12T04:42:54.345Z,33.63
2018-07-12T04:45:21.026Z,28.63
2018-07-12T04:47:54.592Z,25.37
2018-07-12T04:50:32.123Z,23.77
2018-07-12T04:52:58.955Z,27.17
2018-07-12T04:55:25.703Z,30.40
2018-07-12T04:57:52.685Z,25.10
2018-07-12T05:00:19.412Z,24.87
2018-07-12T05:02:46.937Z,25.97
2018-07-12T05:05:13.719Z,28.23
2018-07-12T05:07:40.452Z,27.40
2018-07-12T05:10:07.198Z,81.53
2018-07-12T05:12:34.422Z,24.50
2018-07-12T05:15:01.134Z,24.00
2018-07-12T05:17:27.851Z,24.00
2018-07-12T05:19:54.598Z,19.97
2018-07-12T05:22:22.430Z,65.37
2018-07-12T05:24:49.146Z,26.07
2018-07-12T05:27:15.964Z,32.48
2018-07-12T05:29:42.682Z,23.40
2018-07-12T05:32:10.034Z,28.27
2018-07-12T05:34:36.850Z,32.93
2018-07-12T05:37:05.259Z,20.82
2018-07-12T05:39:33.105Z,22.37
2018-07-12T05:42:00.959Z,25.65
2018-07-12T05:44:29.398Z,29.17
2018-07-12T05:46:57.472Z,22.20
2018-07-12T05:49:25.371Z,20.80
2018-07-12T05:51:53.594Z,21.17
2018-07-12T05:54:21.510Z,21.85
2018-07-12T05:56:50.133Z,18.65
2018-07-12T05:59:18.551Z,25.70
2018-07-12T06:02:00.790Z,22.17
2018-07-12T06:04:28.625Z,22.13
2018-07-12T06:06:56.621Z,18.90
2018-07-12T06:09:24.497Z,19.00
2018-07-12T06:11:52.318Z,23.07
2018-07-12T06:14:20.218Z,24.00
2018-07-12T06:17:51.190Z,19.60
2018-07-12T06:20:19.044Z,20.12
2018-07-12T06:22:46.880Z,21.48
2018-07-12T06:25:54.151Z,20.30
2018-07-12T06:30:55.132Z,21.45
2018-07-12T06:33:22.954Z,19.02
2018-07-12T06:35:50.800Z,22.65
2018-07-12T06:38:18.693Z,16.97
2018-07-12T06:40:46.446Z,18.50
2018-07-12T06:43:15.173Z,16.65
2018-07-12T06:45:42.970Z,18.65
2018-07-12T06:48:10.904Z,20.72
2018-07-12T06:50:38.694Z,14.73
2018-07-12T06:53:06.747Z,18.50
2018-07-12T06:55:34.608Z,16.35
2018-07-12T06:58:02.634Z,21.25
2018-07-12T07:00:30.447Z,13.03
2018-07-12T07:02:58.889Z,12.25
2018-07-12T07:05:27.739Z,10.03
2018-07-12T07:07:55.524Z,13.50
2018-07-12T07:10:23.610Z,10.80
2018-07-12T07:12:51.428Z,12.47
2018-07-12T07:15:19.253Z,12.40
2018-07-12T07:17:47.042Z,14.70
2018-07-12T07:20:15.048Z,14.35
2018-07-12T07:22:42.806Z,14.85
2018-07-12T07:25:10.956Z,9.88
2018-07-12T07:27:38.784Z,12.15
2018-07-12T07:30:06.651Z,10.05
2018-07-12T07:32:34.510Z,12.80
2018-07-12T07:35:29.879Z,8.98
2018-07-12T07:37:57.861Z,13.20
2018-07-12T07:40:25.807Z,8.63
2018-07-12T07:45:34.221Z,8.20
2018-07-12T07:48:01.984Z,8.33
2018-07-12T07:50:29.727Z,11.85
2018-07-12T07:52:58.571Z,7.87
2018-07-12T07:55:26.370Z,9.63
2018-07-12T07:57:55.339Z,9.15
2018-07-12T08:00:23.173Z,7.42
2018-07-12T08:02:51.227Z,9.83
2018-07-12T08:05:19.046Z,11.33
2018-07-12T08:07:46.942Z,10.18
2018-07-12T08:12:48.431Z,9.05
2018-07-12T08:15:16.274Z,7.50
2018-07-12T08:17:44.313Z,9.75
2018-07-12T08:20:12.293Z,7.60
2018-07-12T08:22:42.231Z,10.00
2018-07-12T08:25:10.131Z,9.75
2018-07-12T08:27:49.589Z,9.78
2018-07-12T08:30:17.510Z,7.00
2018-07-12T08:32:45.362Z,8.05
2018-07-12T08:35:23.450Z,10.10
2018-07-12T08:37:51.329Z,9.28
2018-07-12T08:40:27.244Z,13.95
2018-07-12T08:43:05.014Z,6.97
2018-07-12T08:45:57.644Z,6.80
2018-07-12T08:48:25.811Z,10.13
2018-07-12T08:50:53.709Z,8.58
2018-07-12T08:53:21.663Z,6.70
2018-07-12T08:55:49.669Z,8.95
2018-07-12T08:58:17.742Z,9.83
2018-07-12T09:00:45.892Z,13.08
2018-07-12T09:03:15.003Z,12.63
2018-07-12T09:05:43.003Z,10.43
2018-07-12T09:08:11.044Z,11.05
2018-07-12T09:10:38.966Z,11.00
2018-07-12T09:13:09.868Z,11.05
2018-07-12T09:15:37.875Z,10.72
2018-07-12T09:18:07.584Z,12.43
2018-07-12T09:20:38.408Z,13.20
2018-07-12T09:23:07.005Z,12.75
2018-07-12T09:26:15.793Z,12.30
2018-07-12T09:28:43.757Z,8.78
2018-07-12T09:31:11.785Z,9.70
2018-07-12T09:33:40.536Z,8.30
2018-07-12T09:36:08.533Z,9.88
2018-07-12T09:38:47.117Z,9.20
2018-07-12T09:41:15.236Z,10.00
2018-07-12T09:43:44.026Z,14.90
2018-07-12T09:46:11.897Z,13.13
2018-07-12T09:48:41.787Z,8.40
2018-07-12T09:51:11.411Z,8.33
2018-07-12T09:53:40.297Z,6.47
2018-07-12T09:56:08.356Z,7.67
2018-07-12T10:05:18.180Z,10.63
2018-07-12T10:07:49.976Z,6.80
2018-07-12T10:10:19.216Z,9.20
2018-07-12T10:12:53.109Z,10.05
2018-07-12T10:15:26.566Z,8.23
2018-07-12T10:18:28.199Z,9.13
2018-07-12T10:20:56.409Z,9.60
2018-07-12T10:23:24.824Z,6.92
2018-07-12T10:25:53.247Z,9.28
2018-07-12T10:28:21.159Z,9.28
2018-07-12T10:30:49.192Z,10.15
2018-07-12T10:33:17.745Z,7.10
2018-07-12T10:35:45.577Z,6.72
2018-07-12T10:38:13.492Z,7.85
2018-07-12T10:40:41.614Z,6.53
2018-07-12T10:43:09.428Z,7.87
2018-07-12T10:45:38.430Z,8.18
2018-07-12T10:48:06.755Z,6.55
2018-07-12T10:50:35.230Z,7.67
2018-07-12T10:53:03.130Z,9.80
2018-07-12T10:55:31.118Z,7.95
2018-07-12T10:57:59.220Z,7.25
2018-07-12T11:00:27.160Z,9.75
2018-07-12T11:02:55.015Z,7.85
2018-07-12T11:05:23.146Z,9.13
2018-07-12T11:07:50.970Z,8.55
2018-07-12T11:10:19.340Z,6.10
2018-07-12T11:16:12.949Z,7.67
2018-07-12T11:18:51.099Z,8.68
2018-07-12T11:21:19.316Z,7.28
2018-07-12T11:24:15.908Z,7.97
2018-07-12T11:26:44.095Z,8.80
2018-07-12T11:29:12.223Z,6.97
2018-07-12T11:31:40.236Z,7.60
2018-07-12T11:34:08.442Z,6.90
2018-07-12T11:36:36.412Z,9.50
2018-07-12T11:39:06.626Z,8.40
2018-07-12T11:41:36.692Z,7.47
2018-07-12T11:44:04.698Z,5.95
2018-07-12T11:46:32.656Z,7.75
2018-07-12T11:49:00.522Z,8.35
2018-07-12T11:51:29.567Z,6.15
2018-07-12T11:53:57.796Z,7.65
2018-07-12T11:56:26.290Z,5.65
2018-07-12T11:58:54.832Z,6.33
2018-07-12T12:01:22.976Z,5.65
2018-07-12T12:03:51.057Z,5.10
2018-07-12T12:06:18.992Z,6.97
2018-07-12T12:08:46.984Z,5.20
2018-07-12T12:11:16.139Z,5.05
2018-07-12T12:13:44.209Z,4.60
2018-07-12T12:16:12.061Z,2.62
2018-07-12T12:18:40.744Z,7.80
2018-07-12T12:21:08.782Z,3.22
2018-07-12T12:23:37.639Z,4.20
2018-07-12T12:27:09.058Z,3.00
2018-07-12T12:30:10.849Z,9.10
2018-07-12T12:33:00.006Z,4.53
2018-07-12T12:35:28.139Z,5.60
2018-07-12T12:37:56.371Z,4.78
2018-07-12T12:40:26.689Z,2.70
2018-07-12T12:42:54.668Z,4.45
2018-07-12T12:45:24.381Z,6.60
2018-07-12T12:47:52.723Z,4.30
2018-07-12T12:50:21.782Z,4.17
2018-07-12T12:52:49.808Z,2.83
2018-07-12T12:55:18.475Z,7.03
2018-07-12T12:57:47.483Z,5.70
2018-07-12T13:00:15.699Z,4.62
2018-07-12T13:02:44.456Z,3.47
2018-07-12T13:05:13.307Z,6.03
2018-07-12T13:07:41.308Z,4.47
2018-07-12T13:10:10.152Z,6.87
2018-07-12T13:12:38.518Z,2.65
2018-07-12T13:15:07.411Z,8.18
2018-07-12T13:17:35.345Z,4.90
2018-07-12T13:20:03.733Z,4.85
2018-07-12T13:22:31.666Z,7.03
2018-07-12T13:24:59.787Z,3.47
2018-07-12T13:27:27.737Z,4.83
2018-07-12T13:29:56.702Z,5.97
2018-07-12T13:32:24.911Z,4.78
2018-07-12T13:35:05.713Z,2.55
2018-07-12T13:37:47.492Z,2.52
2018-07-12T13:40:15.348Z,3.45
2018-07-12T13:42:43.172Z,2.90
2018-07-12T13:45:10.930Z,3.17
2018-07-12T13:47:39.757Z,5.35
2018-07-12T13:50:07.586Z,3.85
2018-07-12T13:52:37.342Z,4.33
2018-07-12T13:55:05.152Z,5.45
2018-07-12T13:57:33.977Z,5.45
2018-07-12T14:00:01.825Z,5.97
2018-07-12T14:02:30.647Z,5.25
2018-07-12T14:04:58.534Z,3.27
2018-07-12T14:07:26.326Z,3.65
2018-07-12T14:09:54.169Z,3.72
2018-07-12T14:12:22.079Z,4.60
2018-07-12T14:14:49.947Z,1.95
2018-07-12T14:17:17.801Z,4.17
2018-07-12T14:19:45.668Z,5.97
2018-07-12T14:22:13.509Z,4.65
2018-07-12T14:24:41.426Z,3.90
2018-07-12T14:27:09.333Z,3.37
2018-07-12T14:29:38.182Z,5.33
2018-07-12T14:32:05.998Z,8.63
2018-07-12T14:34:34.909Z,4.33
2018-07-12T14:37:02.756Z,4.50
2018-07-12T14:39:30.650Z,5.95
2018-07-12T14:41:58.537Z,6.12
2018-07-12T14:44:26.417Z,4.85
2018-07-12T14:46:54.261Z,7.05
2018-07-12T14:49:22.138Z,5.25
2018-07-12T14:51:49.972Z,3.02
2018-07-12T14:54:17.768Z,3.25
2018-07-12T14:56:45.534Z,3.33
2018-07-12T14:59:13.307Z,3.60
2018-07-12T15:01:42.083Z,3.83
2018-07-12T15:04:09.922Z,2.47
2018-07-12T15:06:38.768Z,6.28
2018-07-12T15:09:07.284Z,3.98
2018-07-12T15:11:34.992Z,3.52
2018-07-12T15:14:02.849Z,8.58
2018-07-12T15:16:30.682Z,3.98
2018-07-12T15:18:58.508Z,7.17
2018-07-12T15:21:26.314Z,4.15
2018-07-12T15:23:54.102Z,4.62
2018-07-12T15:26:21.935Z,5.58
2018-07-12T15:28:50.166Z,7.70
2018-07-12T15:31:17.924Z,2.33
2018-07-12T15:33:45.711Z,4.90
2018-07-12T15:36:13.471Z,5.17
2018-07-12T15:38:41.259Z,2.45
2018-07-12T15:41:09.072Z,3.47
2018-07-12T15:43:36.951Z,3.87
2018-07-12T15:46:04.837Z,2.33
2018-07-12T15:48:32.679Z,3.12
2018-07-12T15:51:00.540Z,2.42
2018-07-12T15:53:28.424Z,1.62
2018-07-12T15:55:56.288Z,2.85
2018-07-12T15:58:24.188Z,4.55
2018-07-12T16:00:51.986Z,3.80
2018-07-12T16:03:22.318Z,5.58
2018-07-12T16:05:50.668Z,7.40
2018-07-12T16:08:18.559Z,1.35
2018-07-12T16:10:46.374Z,4.08
2018-07-12T16:13:14.145Z,4.42
2018-07-12T16:15:43.004Z,4.85
2018-07-12T16:18:10.831Z,7.03
2018-07-12T16:20:39.633Z,2.17
2018-07-12T16:23:07.421Z,3.58
2018-07-12T16:30:36.682Z,3.33
2018-07-12T16:33:04.822Z,2.95
2018-07-12T16:35:32.686Z,3.35
2018-07-12T16:38:00.550Z,5.05
2018-07-12T16:40:28.344Z,2.65
2018-07-12T16:42:56.228Z,1.82
2018-07-12T16:45:24.072Z,3.45
2018-07-12T16:47:51.927Z,2.98
2018-07-12T16:50:19.814Z,3.60
2018-07-12T16:52:47.608Z,3.20
2018-07-12T16:55:15.406Z,6.97
2018-07-12T16:57:43.210Z,2.75
2018-07-12T17:00:11.139Z,4.37
2018-07-12T17:02:39.154Z,6.62
2018-07-12T17:05:08.496Z,3.30
2018-07-12T17:07:36.448Z,1.82
2018-07-12T17:10:05.505Z,2.67
2018-07-12T17:12:33.351Z,4.42
2018-07-12T17:15:01.152Z,7.00
2018-07-12T17:17:28.986Z,6.00
2018-07-12T17:19:56.809Z,4.22
2018-07-12T17:22:24.593Z,5.15
2018-07-12T17:24:52.388Z,1.60
2018-07-12T17:27:20.963Z,5.37
2018-07-12T17:29:48.814Z,5.00
2018-07-12T17:32:16.659Z,4.67
2018-07-12T17:34:44.486Z,4.78
2018-07-12T17:37:12.282Z,2.55
2018-07-12T17:39:40.320Z,2.87
2018-07-12T17:42:08.187Z,2.55
2018-07-12T17:44:36.013Z,2.50
2018-07-12T17:47:03.967Z,3.62
2018-07-12T17:49:31.788Z,5.00
2018-07-12T17:51:59.604Z,5.33
2018-07-12T17:54:27.448Z,5.53
2018-07-12T17:56:55.352Z,4.78
2018-07-12T17:59:23.191Z,3.77
2018-07-12T18:01:51.294Z,3.25
2018-07-12T18:04:19.492Z,2.22
2018-07-12T18:06:47.523Z,5.40
2018-07-12T18:09:15.708Z,3.50
2018-07-12T18:11:43.600Z,4.28
2018-07-12T18:14:11.700Z,12.35
2018-07-12T18:16:39.582Z,5.90
2018-07-12T18:19:07.641Z,4.50
2018-07-12T18:21:35.678Z,4.83
2018-07-12T18:24:04.644Z,6.00
2018-07-12T18:26:32.534Z,3.98
2018-07-12T18:29:00.416Z,6.45
2018-07-12T18:31:28.323Z,5.25
2018-07-12T18:33:56.190Z,7.65
2018-07-12T18:36:24.066Z,4.50
2018-07-12T18:38:51.980Z,5.37
2018-07-12T18:41:20.062Z,5.42
2018-07-12T18:43:47.954Z,3.55
2018-07-12T18:46:15.820Z,3.30
2018-07-12T18:48:43.693Z,5.70
2018-07-12T18:51:12.667Z,5.05
2018-07-12T18:53:40.772Z,6.00
2018-07-12T18:56:08.721Z,6.87
2018-07-12T18:58:36.701Z,4.80
2018-07-12T19:01:04.532Z,6.15
2018-07-12T19:03:32.372Z,4.45
2018-07-12T19:06:00.197Z,5.40
2018-07-12T19:08:28.081Z,8.05
2018-07-12T19:10:56.008Z,5.03
2018-07-12T19:13:23.984Z,7.40
2018-07-12T19:15:51.933Z,6.87
2018-07-12T19:18:19.832Z,4.30
2018-07-12T19:20:47.751Z,7.83
2018-07-12T19:23:16.701Z,6.08
2018-07-12T19:25:45.756Z,8.67
2018-07-12T19:28:13.685Z,9.08
2018-07-12T19:30:42.681Z,7.78
2018-07-12T19:33:55.437Z,8.40
2018-07-12T19:37:03.127Z,7.47
2018-07-12T19:39:31.004Z,7.45
2018-07-12T19:41:58.828Z,7.07
2018-07-12T19:44:26.658Z,8.80
2018-07-12T19:47:25.286Z,9.50
2018-07-12T19:52:58.126Z,11.47
2018-07-12T19:55:26.086Z,11.07
2018-07-12T19:57:53.952Z,11.47
2018-07-12T20:00:21.833Z,15.43
2018-07-12T20:02:49.668Z,11.97
2018-07-12T20:05:17.498Z,13.67
2018-07-12T20:07:45.336Z,12.82
2018-07-12T20:10:13.132Z,20.48
2018-07-12T20:12:42.008Z,12.03
2018-07-12T20:15:09.882Z,11.88
2018-07-12T20:17:37.778Z,11.67
2018-07-12T20:20:06.503Z,11.93
2018-07-12T20:22:34.921Z,9.93
2018-07-12T20:25:02.911Z,11.10
2018-07-12T20:28:05.120Z,13.08
2018-07-12T20:30:33.009Z,14.30
2018-07-12T20:33:00.856Z,10.47
2018-07-12T20:35:29.202Z,10.57
2018-07-12T20:37:57.122Z,9.10
2018-07-12T20:40:24.986Z,12.17
2018-07-12T20:42:52.841Z,11.80
2018-07-12T20:45:20.811Z,11.57
2018-07-12T20:47:48.640Z,11.70
2018-07-12T20:50:17.517Z,10.83
2018-07-12T20:52:45.394Z,13.27
2018-07-12T20:55:14.347Z,10.87
2018-07-12T20:57:42.258Z,14.83
2018-07-12T21:00:10.092Z,13.10
2018-07-12T21:02:38.039Z,14.87
2018-07-12T21:05:06.950Z,12.00
2018-07-12T21:07:34.873Z,13.07
2018-07-12T21:10:02.710Z,13.47
2018-07-12T21:12:30.674Z,14.33
2018-07-12T21:14:58.574Z,14.57
2018-07-12T21:17:26.513Z,19.13
2018-07-12T21:19:54.437Z,11.80
2018-07-12T21:22:22.888Z,13.87
2018-07-12T21:24:50.722Z,11.93
2018-07-12T21:27:18.577Z,12.43
2018-07-12T21:29:46.450Z,14.90
2018-07-12T21:32:22.105Z,17.37
2018-07-12T21:34:57.444Z,14.87
2018-07-12T21:37:27.435Z,11.90
2018-07-12T21:39:55.631Z,13.27
2018-07-12T21:42:24.473Z,16.17
2018-07-12T21:44:52.400Z,16.47
2018-07-12T21:47:20.382Z,14.20
2018-07-12T21:49:48.418Z,15.00
2018-07-12T21:52:16.417Z,14.17
2018-07-12T21:54:45.343Z,15.63
2018-07-12T21:57:13.299Z,19.40
2018-07-12T21:59:41.229Z,21.30
2018-07-12T22:02:09.187Z,17.07
2018-07-12T22:04:37.298Z,19.20
2018-07-12T22:08:19.714Z,26.53
2018-07-12T22:10:48.840Z,17.13
2018-07-12T22:13:17.232Z,21.80
2018-07-12T22:15:46.160Z,18.83
2018-07-12T22:18:14.765Z,22.80
2018-07-12T22:20:42.828Z,20.03
2018-07-12T22:23:11.192Z,22.63
2018-07-12T22:25:39.317Z,20.43
2018-07-12T22:28:07.586Z,20.67
2018-07-12T22:30:35.735Z,25.03
2018-07-12T22:33:04.481Z,27.03
2018-07-12T22:35:32.720Z,25.37
2018-07-12T22:38:01.757Z,23.87
2018-07-12T22:40:30.054Z,27.73
2018-07-12T22:42:57.986Z,30.13
2018-07-12T22:45:25.951Z,33.63
2018-07-12T22:47:54.065Z,29.27
2018-07-12T22:50:21.984Z,31.50
2018-07-12T22:52:49.960Z,25.73
2018-07-12T22:55:18.107Z,32.30
2018-07-12T22:57:46.321Z,29.97
2018-07-12T23:00:14.305Z,28.03
2018-07-12T23:02:42.290Z,26.33
2018-07-12T23:05:10.214Z,23.10
2018-07-12T23:07:38.165Z,22.87
2018-07-12T23:10:07.109Z,23.90
2018-07-12T23:12:35.071Z,28.17
2018-07-12T23:15:02.969Z,24.07
2018-07-12T23:17:30.874Z,21.43
2018-07-12T23:19:58.786Z,19.27
2018-07-12T23:22:26.594Z,31.33
2018-07-12T23:32:52.824Z,32.17
2018-07-12T23:35:20.875Z,24.60
2018-07-12T23:37:48.832Z,32.20
2018-07-12T23:40:16.722Z,28.10
2018-07-12T23:42:44.700Z,21.07
2018-07-12T23:45:13.783Z,29.63
2018-07-12T23:47:42.149Z,23.53
2018-07-12T23:50:11.112Z,27.63
2018-07-12T23:52:39.082Z,30.10
2018-07-12T23:55:07.043Z,29.43
2018-07-12T23:57:35.075Z,27.90
